Baotou, China
Current Conditions -  °F | °C
As of 8:00 PM on Friday 28 Nov 2014 (Local Time) from ZBHH Reporting Station
Haze Haze  
Wind Chill: 17°   Ceiling: Unl
Heat Index: 25°   Visibility: 3mi
Dew Point: 21°   Wind: 7mph
Humidity: 86%   Direction: 70°ENE
Pressure: 29.97"   Gusts: NA
Location:  40.4°N, 109.59°E
Report Text: ZBHH 281200Z 07003MPS 5000 BR NSC M04/M06 Q1015 NOSIG
Loading
Personal Weather Stations






























Interactive Weather Map New forecast layout! Learn more

10-Day Weather Forecast

Advertisements
Track Severe Weather on mobile